<?xml version="1.0" encoding="UTF-8" standalone="no" ?>
<gpx xmlns="http://www.topografix.com/GPX/1/1" xmlns:xsi="http://www.w3.org/2001/XMLSchema-instance" xsi:schemaLocation="http://www.topografix.com/GPX/1/1 http://www.topografix.com/GPX/1/1/gpx.xsd" version="1.1" creator="VisuGPX - https://www.visugpx.com">
  <metadata>
    <name>gk9d7yRslB</name>
    <desc><![CDATA[

]]></desc>
  </metadata>
  <trk>
    <name><![CDATA[gk9d7yRslB_1]]></name>
    <trkseg>
      <trkpt lat="45.36289" lon="5.7914">
        <ele>931</ele>
        <time>2008-10-25T13:25:34Z</time>
      </trkpt>
      <trkpt lat="45.36276" lon="5.7914">
        <ele>928</ele>
        <time>2008-10-25T13:26:36Z</time>
      </trkpt>
      <trkpt lat="45.36266" lon="5.79138">
        <ele>929</ele>
        <time>2008-10-25T13:27:59Z</time>
      </trkpt>
      <trkpt lat="45.36251" lon="5.79123">
        <ele>929</ele>
        <time>2008-10-25T13:29:30Z</time>
      </trkpt>
      <trkpt lat="45.36238" lon="5.79106">
        <ele>929</ele>
        <time>2008-10-25T13:29:33Z</time>
      </trkpt>
      <trkpt lat="45.36165" lon="5.79085">
        <ele>927</ele>
        <time>2008-10-25T13:29:42Z</time>
      </trkpt>
      <trkpt lat="45.36115" lon="5.79072">
        <ele>927</ele>
        <time>2008-10-25T13:29:47Z</time>
      </trkpt>
      <trkpt lat="45.36049" lon="5.79022">
        <ele>927</ele>
        <time>2008-10-25T13:29:53Z</time>
      </trkpt>
      <trkpt lat="45.36015" lon="5.78995">
        <ele>927</ele>
        <time>2008-10-25T13:29:56Z</time>
      </trkpt>
      <trkpt lat="45.35931" lon="5.78911">
        <ele>927</ele>
        <time>2008-10-25T13:30:03Z</time>
      </trkpt>
      <trkpt lat="45.3565" lon="5.78698">
        <ele>925</ele>
        <time>2008-10-25T13:30:24Z</time>
      </trkpt>
      <trkpt lat="45.35521" lon="5.78774">
        <ele>820</ele>
        <time>2008-10-25T13:30:31Z</time>
      </trkpt>
      <trkpt lat="45.35525" lon="5.78789">
        <ele>820</ele>
        <time>2008-10-25T13:30:39Z</time>
      </trkpt>
      <trkpt lat="45.35532" lon="5.78789">
        <ele>819</ele>
        <time>2008-10-25T13:31:06Z</time>
      </trkpt>
      <trkpt lat="45.35528" lon="5.78789">
        <ele>820</ele>
        <time>2008-10-25T13:31:38Z</time>
      </trkpt>
    </trkseg>
  </trk>
</gpx>